sensor_id;sensor_type;location;lat;lon;timestamp;pressure;altitude;pressure_sealevel;temperature;humidity
31121;BME280;17770;45.966;13.632;2022-11-20T00:01:19;99728.91;;;15.91;60.19
31121;BME280;17770;45.966;13.632;2022-11-20T00:03:46;99729.72;;;15.92;60.22
31121;BME280;17770;45.966;13.632;2022-11-20T00:06:13;99737.50;;;15.92;59.87
31121;BME280;17770;45.966;13.632;2022-11-20T00:08:40;99728.91;;;15.91;60.06
31121;BME280;17770;45.966;13.632;2022-11-20T00:11:15;99733.25;;;15.91;59.84
31121;BME280;17770;45.966;13.632;2022-11-20T00:13:43;99726.28;;;15.91;59.84
31121;BME280;17770;45.966;13.632;2022-11-20T00:16:09;99727.09;;;15.92;60.10
31121;BME280;17770;45.966;13.632;2022-11-20T00:18:35;99724.50;;;15.92;60.02
31121;BME280;17770;45.966;13.632;2022-11-20T00:21:02;99717.66;;;15.91;60.18
31121;BME280;17770;45.966;13.632;2022-11-20T00:23:29;99717.66;;;15.91;60.01
31121;BME280;17770;45.966;13.632;2022-11-20T00:25:55;99718.59;;;15.90;60.27
31121;BME280;17770;45.966;13.632;2022-11-20T00:28:21;99715.06;;;15.91;59.97
31121;BME280;17770;45.966;13.632;2022-11-20T00:30:46;99719.41;;;15.90;60.25
31121;BME280;17770;45.966;13.632;2022-11-20T00:33:12;99729.91;;;15.89;60.28
31121;BME280;17770;45.966;13.632;2022-11-20T00:35:38;99735.94;;;15.89;60.18
31121;BME280;17770;45.966;13.632;2022-11-20T00:38:04;99736.78;;;15.90;60.16
31121;BME280;17770;45.966;13.632;2022-11-20T00:40:30;99741.16;;;15.89;60.47
31121;BME280;17770;45.966;13.632;2022-11-20T00:42:56;99747.19;;;15.90;60.25
31121;BME280;17770;45.966;13.632;2022-11-20T00:45:21;99733.34;;;15.89;60.20
31121;BME280;17770;45.966;13.632;2022-11-20T00:47:47;99760.19;;;15.90;60.58
31121;BME280;17770;45.966;13.632;2022-11-20T00:50:13;99756.75;;;15.89;60.27
31121;BME280;17770;45.966;13.632;2022-11-20T00:52:39;99745.41;;;15.90;59.79
31121;BME280;17770;45.966;13.632;2022-11-20T00:55:05;99747.19;;;15.90;60.56
31121;BME280;17770;45.966;13.632;2022-11-20T00:57:32;99743.75;;;15.89;60.07
31121;BME280;17770;45.966;13.632;2022-11-20T00:59:58;99752.41;;;15.90;59.88
31121;BME280;17770;45.966;13.632;2022-11-20T01:02:24;99762.88;;;15.88;60.67
31121;BME280;17770;45.966;13.632;2022-11-20T01:04:51;99756.75;;;15.89;60.04
31121;BME280;17770;45.966;13.632;2022-11-20T01:07:18;99770.59;;;15.90;60.08
31121;BME280;17770;45.966;13.632;2022-11-20T01:09:45;99756.84;;;15.88;59.94
31121;BME280;17770;45.966;13.632;2022-11-20T01:12:11;99766.31;;;15.89;59.97
31121;BME280;17770;45.966;13.632;2022-11-20T01:14:37;99749.03;;;15.88;60.00
31121;BME280;17770;45.966;13.632;2022-11-20T01:17:03;99749.88;;;15.88;59.99
31121;BME280;17770;45.966;13.632;2022-11-20T01:19:28;99765.50;;;15.88;60.28
31121;BME280;17770;45.966;13.632;2022-11-20T01:21:54;99753.41;;;15.87;60.09
31121;BME280;17770;45.966;13.632;2022-11-20T01:24:21;99765.50;;;15.88;60.46
31121;BME280;17770;45.966;13.632;2022-11-20T01:26:47;99776.72;;;15.89;59.96
31121;BME280;17770;45.966;13.632;2022-11-20T01:29:15;99764.56;;;15.89;59.97
31121;BME280;17770;45.966;13.632;2022-11-20T01:31:41;99777.56;;;15.89;60.30
31121;BME280;17770;45.966;13.632;2022-11-20T01:34:12;99774.94;;;15.89;60.22
31121;BME280;17770;45.966;13.632;2022-11-20T01:36:38;99766.31;;;15.89;60.02
31121;BME280;17770;45.966;13.632;2022-11-20T01:39:05;99784.50;;;15.89;60.58
31121;BME280;17770;45.966;13.632;2022-11-20T01:41:32;99778.50;;;15.88;60.52
31121;BME280;17770;45.966;13.632;2022-11-20T01:44:18;99788.91;;;15.88;60.34
31121;BME280;17770;45.966;13.632;2022-11-20T01:46:59;99776.81;;;15.87;60.44
31121;BME280;17770;45.966;13.632;2022-11-20T01:49:33;99790.66;;;15.88;60.40
31121;BME280;17770;45.966;13.632;2022-11-20T01:52:01;99778.50;;;15.88;60.57
31121;BME280;17770;45.966;13.632;2022-11-20T01:54:31;99775.91;;;15.88;60.53
31121;BME280;17770;45.966;13.632;2022-11-20T01:56:57;99782.84;;;15.88;60.56
31121;BME280;17770;45.966;13.632;2022-11-20T01:59:25;99779.41;;;15.87;60.11
31121;BME280;17770;45.966;13.632;2022-11-20T02:01:52;99780.25;;;15.88;60.27
31121;BME280;17770;45.966;13.632;2022-11-20T02:04:17;99778.56;;;15.87;59.92
31121;BME280;17770;45.966;13.632;2022-11-20T02:06:44;99779.41;;;15.87;60.33
31121;BME280;17770;45.966;13.632;2022-11-20T02:09:11;99779.41;;;15.87;60.38
31121;BME280;17770;45.966;13.632;2022-11-20T02:11:38;99775.97;;;15.87;60.32
31121;BME280;17770;45.966;13.632;2022-11-20T02:14:03;99776.81;;;15.87;60.49
31121;BME280;17770;45.966;13.632;2022-11-20T02:16:34;99776.81;;;15.87;60.49
31121;BME280;17770;45.966;13.632;2022-11-20T02:19:01;99771.59;;;15.87;60.29
31121;BME280;17770;45.966;13.632;2022-11-20T02:21:43;99772.53;;;15.86;60.53
31121;BME280;17770;45.966;13.632;2022-11-20T02:24:13;99777.75;;;15.86;60.42
31121;BME280;17770;45.966;13.632;2022-11-20T02:29:06;99767.44;;;15.85;60.22
31121;BME280;17770;45.966;13.632;2022-11-20T02:31:40;99769.94;;;15.86;59.90
31121;BME280;17770;45.966;13.632;2022-11-20T02:34:07;99770.84;;;15.85;60.11
31121;BME280;17770;45.966;13.632;2022-11-20T02:36:34;99766.50;;;15.86;60.22
31121;BME280;17770;45.966;13.632;2022-11-20T02:39:02;99769.09;;;15.86;60.62
31121;BME280;17770;45.966;13.632;2022-11-20T02:41:32;99772.53;;;15.86;59.97
31121;BME280;17770;45.966;13.632;2022-11-20T02:43:58;99776.06;;;15.85;60.37
31121;BME280;17770;45.966;13.632;2022-11-20T02:46:24;99778.66;;;15.85;60.29
31121;BME280;17770;45.966;13.632;2022-11-20T02:48:50;99781.25;;;15.85;60.56
31121;BME280;17770;45.966;13.632;2022-11-20T02:51:16;99770.84;;;15.85;60.10
31121;BME280;17770;45.966;13.632;2022-11-20T02:53:42;99760.44;;;15.85;60.23
31121;BME280;17770;45.966;13.632;2022-11-20T02:56:08;99777.00;;;15.84;60.27
31121;BME280;17770;45.966;13.632;2022-11-20T02:58:36;99778.66;;;15.85;60.33
31121;BME280;17770;45.966;13.632;2022-11-20T03:01:02;99774.28;;;15.86;60.38
31121;BME280;17770;45.966;13.632;2022-11-20T03:03:28;99771.69;;;15.86;59.99
31121;BME280;17770;45.966;13.632;2022-11-20T03:05:54;99756.09;;;15.86;59.91
31121;BME280;17770;45.966;13.632;2022-11-20T03:08:20;99773.44;;;15.85;60.34
31121;BME280;17770;45.966;13.632;2022-11-20T03:10:46;99764.84;;;15.85;60.00
31121;BME280;17770;45.966;13.632;2022-11-20T03:13:12;99764.84;;;15.85;60.32
31121;BME280;17770;45.966;13.632;2022-11-20T03:15:38;99759.63;;;15.85;60.54
31121;BME280;17770;45.966;13.632;2022-11-20T03:18:07;99766.50;;;15.86;60.53
31121;BME280;17770;45.966;13.632;2022-11-20T03:20:33;99765.75;;;15.84;60.11
31121;BME280;17770;45.966;13.632;2022-11-20T03:22:59;99771.78;;;15.84;60.10
31121;BME280;17770;45.966;13.632;2022-11-20T03:25:26;99764.00;;;15.84;60.19
31121;BME280;17770;45.966;13.632;2022-11-20T03:27:54;99770.13;;;15.83;59.95
31121;BME280;17770;45.966;13.632;2022-11-20T03:30:22;99765.75;;;15.84;59.98
31121;BME280;17770;45.966;13.632;2022-11-20T03:32:48;99759.84;;;15.82;60.32
31121;BME280;17770;45.966;13.632;2022-11-20T03:35:14;99766.69;;;15.83;59.95
31121;BME280;17770;45.966;13.632;2022-11-20T03:37:40;99770.03;;;15.85;60.24
31121;BME280;17770;45.966;13.632;2022-11-20T03:40:06;99768.44;;;15.82;60.61
31121;BME280;17770;45.966;13.632;2022-11-20T03:42:33;99766.69;;;15.83;60.20
31121;BME280;17770;45.966;13.632;2022-11-20T03:45:16;99763.25;;;15.82;60.01
31121;BME280;17770;45.966;13.632;2022-11-20T03:47:42;99758.88;;;15.83;60.42
31121;BME280;17770;45.966;13.632;2022-11-20T03:50:09;99771.88;;;15.83;60.17
31121;BME280;17770;45.966;13.632;2022-11-20T03:52:36;99778.84;;;15.82;59.95
31121;BME280;17770;45.966;13.632;2022-11-20T03:55:02;99777.19;;;15.81;60.50
31121;BME280;17770;45.966;13.632;2022-11-20T03:57:28;99781.53;;;15.81;60.66
31121;BME280;17770;45.966;13.632;2022-11-20T03:59:54;99784.13;;;15.81;60.02
31121;BME280;17770;45.966;13.632;2022-11-20T04:02:20;99790.19;;;15.81;60.51
31121;BME280;17770;45.966;13.632;2022-11-20T04:04:47;99784.97;;;15.81;60.55
31121;BME280;17770;45.966;13.632;2022-11-20T04:07:13;99784.13;;;15.81;60.65
31121;BME280;17770;45.966;13.632;2022-11-20T04:09:39;99772.91;;;15.80;60.49
31121;BME280;17770;45.966;13.632;2022-11-20T04:12:05;99775.50;;;15.80;60.53
31121;BME280;17770;45.966;13.632;2022-11-20T04:14:31;99778.94;;;15.81;60.00
31121;BME280;17770;45.966;13.632;2022-11-20T04:16:57;99781.53;;;15.81;59.95
31121;BME280;17770;45.966;13.632;2022-11-20T04:19:23;99790.28;;;15.80;60.57
31121;BME280;17770;45.966;13.632;2022-11-20T04:21:49;99783.28;;;15.80;59.98
31121;BME280;17770;45.966;13.632;2022-11-20T04:24:15;99783.28;;;15.80;60.25
31121;BME280;17770;45.966;13.632;2022-11-20T04:26:41;99786.75;;;15.81;60.04
31121;BME280;17770;45.966;13.632;2022-11-20T04:29:09;99791.19;;;15.79;60.20
31121;BME280;17770;45.966;13.632;2022-11-20T04:31:36;99785.88;;;15.80;60.45
31121;BME280;17770;45.966;13.632;2022-11-20T04:34:03;99773.75;;;15.81;60.28
31121;BME280;17770;45.966;13.632;2022-11-20T04:36:30;99777.28;;;15.80;60.47
31121;BME280;17770;45.966;13.632;2022-11-20T04:39:00;99777.38;;;15.78;60.23
31121;BME280;17770;45.966;13.632;2022-11-20T04:41:28;99775.59;;;15.79;60.28
31121;BME280;17770;45.966;13.632;2022-11-20T04:43:56;99775.59;;;15.79;60.44
31121;BME280;17770;45.966;13.632;2022-11-20T04:46:26;99785.06;;;15.80;60.19
31121;BME280;17770;45.966;13.632;2022-11-20T04:48:53;99774.78;;;15.78;60.54
31121;BME280;17770;45.966;13.632;2022-11-20T04:51:19;99777.38;;;15.78;60.34
31121;BME280;17770;45.966;13.632;2022-11-20T04:53:45;99793.88;;;15.77;59.86
31121;BME280;17770;45.966;13.632;2022-11-20T04:56:12;99792.22;;;15.76;59.96
31121;BME280;17770;45.966;13.632;2022-11-20T04:58:39;99793.88;;;15.77;59.91
31121;BME280;17770;45.966;13.632;2022-11-20T05:03:31;99802.63;;;15.76;59.99
31121;BME280;17770;45.966;13.632;2022-11-20T05:06:02;99804.28;;;15.77;60.58
31121;BME280;17770;45.966;13.632;2022-11-20T05:08:28;99809.47;;;15.77;59.89
31121;BME280;17770;45.966;13.632;2022-11-20T05:11:02;99814.69;;;15.77;59.86
31121;BME280;17770;45.966;13.632;2022-11-20T05:13:29;99813.03;;;15.76;59.89
31121;BME280;17770;45.966;13.632;2022-11-20T05:15:55;99814.69;;;15.77;60.15
31121;BME280;17770;45.966;13.632;2022-11-20T05:18:21;99819.06;;;15.77;59.80
31121;BME280;17770;45.966;13.632;2022-11-20T05:20:53;99822.47;;;15.77;59.93
31121;BME280;17770;45.966;13.632;2022-11-20T05:23:19;99814.69;;;15.77;60.00
31121;BME280;17770;45.966;13.632;2022-11-20T05:25:46;99815.63;;;15.76;60.51
31121;BME280;17770;45.966;13.632;2022-11-20T05:28:12;99832.97;;;15.76;60.25
31121;BME280;17770;45.966;13.632;2022-11-20T05:30:38;99823.50;;;15.75;60.12
31121;BME280;17770;45.966;13.632;2022-11-20T05:33:04;99829.53;;;15.75;60.03
31121;BME280;17770;45.966;13.632;2022-11-20T05:35:30;99830.38;;;15.76;60.40
31121;BME280;17770;45.966;13.632;2022-11-20T05:37:56;99823.50;;;15.75;59.91
31121;BME280;17770;45.966;13.632;2022-11-20T05:40:22;99845.97;;;15.76;60.36
31121;BME280;17770;45.966;13.632;2022-11-20T05:42:48;99831.31;;;15.75;60.41
31121;BME280;17770;45.966;13.632;2022-11-20T05:45:14;99835.66;;;15.74;59.88
31121;BME280;17770;45.966;13.632;2022-11-20T05:47:43;99848.66;;;15.74;60.18
31121;BME280;17770;45.966;13.632;2022-11-20T05:50:09;99840.88;;;15.74;60.48
31121;BME280;17770;45.966;13.632;2022-11-20T05:52:35;99839.13;;;15.75;60.55
31121;BME280;17770;45.966;13.632;2022-11-20T05:55:01;99852.94;;;15.75;60.23
31121;BME280;17770;45.966;13.632;2022-11-20T05:57:27;99849.59;;;15.73;60.43
31121;BME280;17770;45.966;13.632;2022-11-20T05:59:53;99851.34;;;15.73;60.37
31121;BME280;17770;45.966;13.632;2022-11-20T06:02:19;99856.56;;;15.73;59.94
31121;BME280;17770;45.966;13.632;2022-11-20T06:04:45;99861.75;;;15.73;60.13
31121;BME280;17770;45.966;13.632;2022-11-20T06:07:11;99864.34;;;15.73;59.90
31121;BME280;17770;45.966;13.632;2022-11-20T06:09:37;99864.34;;;15.73;59.87
31121;BME280;17770;45.966;13.632;2022-11-20T06:12:03;99866.88;;;15.74;60.28
31121;BME280;17770;45.966;13.632;2022-11-20T06:14:30;99864.34;;;15.73;59.81
31121;BME280;17770;45.966;13.632;2022-11-20T06:16:56;99856.56;;;15.73;60.00
31121;BME280;17770;45.966;13.632;2022-11-20T06:19:22;99868.63;;;15.74;60.00
31121;BME280;17770;45.966;13.632;2022-11-20T06:21:48;99866.94;;;15.73;60.32
31121;BME280;17770;45.966;13.632;2022-11-20T06:24:15;99875.59;;;15.73;59.93
31121;BME280;17770;45.966;13.632;2022-11-20T06:26:42;99869.56;;;15.73;60.15
31121;BME280;17770;45.966;13.632;2022-11-20T06:29:09;99876.50;;;15.72;60.18
31121;BME280;17770;45.966;13.632;2022-11-20T06:31:35;99883.50;;;15.72;60.38
31121;BME280;17770;45.966;13.632;2022-11-20T06:34:03;99884.31;;;15.72;59.95
31121;BME280;17770;45.966;13.632;2022-11-20T06:36:30;99889.59;;;15.71;59.89
31121;BME280;17770;45.966;13.632;2022-11-20T06:38:56;99886.16;;;15.70;60.29
31121;BME280;17770;45.966;13.632;2022-11-20T06:41:22;99899.09;;;15.72;59.72
31121;BME280;17770;45.966;13.632;2022-11-20T06:43:49;99904.34;;;15.70;60.29
31121;BME280;17770;45.966;13.632;2022-11-20T06:46:15;99915.59;;;15.71;60.06
31121;BME280;17770;45.966;13.632;2022-11-20T06:48:45;99917.28;;;15.72;60.21
31121;BME280;17770;45.966;13.632;2022-11-20T06:51:11;99920.78;;;15.71;59.90
31121;BME280;17770;45.966;13.632;2022-11-20T06:53:38;99923.47;;;15.69;59.88
31121;BME280;17770;45.966;13.632;2022-11-20T06:56:04;99924.25;;;15.71;60.21
31121;BME280;17770;45.966;13.632;2022-11-20T06:58:31;99919.13;;;15.70;60.38
31121;BME280;17770;45.966;13.632;2022-11-20T07:01:05;99925.16;;;15.70;59.82
31121;BME280;17770;45.966;13.632;2022-11-20T07:03:42;99926.94;;;15.70;59.88
31121;BME280;17770;45.966;13.632;2022-11-20T07:06:09;99932.13;;;15.70;60.14
31121;BME280;17770;45.966;13.632;2022-11-20T07:08:37;99942.63;;;15.68;59.95
31121;BME280;17770;45.966;13.632;2022-11-20T07:11:05;99942.53;;;15.70;60.35
31121;BME280;17770;45.966;13.632;2022-11-20T07:13:31;99939.09;;;15.69;59.89
31121;BME280;17770;45.966;13.632;2022-11-20T07:16:02;99950.31;;;15.70;60.01
31121;BME280;17770;45.966;13.632;2022-11-20T07:18:29;99946.03;;;15.68;59.93
31121;BME280;17770;45.966;13.632;2022-11-20T07:20:55;99949.47;;;15.69;59.95
31121;BME280;17770;45.966;13.632;2022-11-20T07:23:21;99962.47;;;15.69;59.95
31121;BME280;17770;45.966;13.632;2022-11-20T07:25:47;99959.03;;;15.68;60.27
31121;BME280;17770;45.966;13.632;2022-11-20T07:28:14;99968.53;;;15.70;60.12
31121;BME280;17770;45.966;13.632;2022-11-20T07:30:40;99970.38;;;15.68;60.57
31121;BME280;17770;45.966;13.632;2022-11-20T07:33:06;99981.63;;;15.68;59.83
31121;BME280;17770;45.966;13.632;2022-11-20T07:35:32;99980.69;;;15.69;59.93
31121;BME280;17770;45.966;13.632;2022-11-20T07:37:58;99981.63;;;15.68;60.03
31121;BME280;17770;45.966;13.632;2022-11-20T07:40:24;99989.41;;;15.68;60.12
31121;BME280;17770;45.966;13.632;2022-11-20T07:42:51;99984.31;;;15.67;59.91
31121;BME280;17770;45.966;13.632;2022-11-20T07:45:17;99982.50;;;15.67;60.18
31121;BME280;17770;45.966;13.632;2022-11-20T07:47:44;99980.84;;;15.66;60.36
31121;BME280;17770;45.966;13.632;2022-11-20T07:50:10;99992.91;;;15.67;60.00
31121;BME280;17770;45.966;13.632;2022-11-20T07:52:38;99986.81;;;15.68;60.22
31121;BME280;17770;45.966;13.632;2022-11-20T07:55:05;99989.59;;;15.65;59.94
31121;BME280;17770;45.966;13.632;2022-11-20T07:57:32;99996.44;;;15.66;60.29
31121;BME280;17770;45.966;13.632;2022-11-20T07:59:58;100002.50;;;15.67;59.99
31121;BME280;17770;45.966;13.632;2022-11-20T08:02:25;100005.09;;;15.67;60.32
31121;BME280;17770;45.966;13.632;2022-11-20T08:04:51;100012.03;;;15.66;60.04
31121;BME280;17770;45.966;13.632;2022-11-20T08:07:17;100018.09;;;15.67;60.00
31121;BME280;17770;45.966;13.632;2022-11-20T08:09:43;100011.09;;;15.67;60.19
31121;BME280;17770;45.966;13.632;2022-11-20T08:12:14;100020.69;;;15.67;60.20
31121;BME280;17770;45.966;13.632;2022-11-20T08:15:02;100018.09;;;15.67;60.38
31121;BME280;17770;45.966;13.632;2022-11-20T08:17:29;100020.69;;;15.67;60.48
31121;BME280;17770;45.966;13.632;2022-11-20T08:19:55;100037.09;;;15.67;60.27
31121;BME280;17770;45.966;13.632;2022-11-20T08:22:21;100030.25;;;15.66;60.41
31121;BME280;17770;45.966;13.632;2022-11-20T08:24:47;100030.25;;;15.66;60.37
31121;BME280;17770;45.966;13.632;2022-11-20T08:27:13;100034.59;;;15.65;60.19
31121;BME280;17770;45.966;13.632;2022-11-20T08:29:39;100032.00;;;15.65;59.83
31121;BME280;17770;45.966;13.632;2022-11-20T08:32:05;100035.53;;;15.64;60.35
31121;BME280;17770;45.966;13.632;2022-11-20T08:34:31;100033.69;;;15.67;60.04
31121;BME280;17770;45.966;13.632;2022-11-20T08:36:57;100043.34;;;15.64;59.81
31121;BME280;17770;45.966;13.632;2022-11-20T08:39:23;100062.44;;;15.63;59.97
31121;BME280;17770;45.966;13.632;2022-11-20T08:41:49;100052.88;;;15.64;60.39
31121;BME280;17770;45.966;13.632;2022-11-20T08:44:14;100056.31;;;15.64;59.85
31121;BME280;17770;45.966;13.632;2022-11-20T08:46:41;100064.88;;;15.67;59.89
31121;BME280;17770;45.966;13.632;2022-11-20T08:49:08;100069.25;;;15.66;60.49
31121;BME280;17770;45.966;13.632;2022-11-20T08:51:34;100061.53;;;15.64;60.09
31121;BME280;17770;45.966;13.632;2022-11-20T08:54:00;100067.56;;;15.65;60.02
31121;BME280;17770;45.966;13.632;2022-11-20T08:56:26;100071.00;;;15.65;59.89
31121;BME280;17770;45.966;13.632;2022-11-20T08:58:53;100067.50;;;15.67;59.87
31121;BME280;17770;45.966;13.632;2022-11-20T09:01:19;100071.84;;;15.66;60.46
31121;BME280;17770;45.966;13.632;2022-11-20T09:03:45;100069.31;;;15.64;60.28
31121;BME280;17770;45.966;13.632;2022-11-20T09:06:11;100076.19;;;15.65;60.14
31121;BME280;17770;45.966;13.632;2022-11-20T09:08:37;100087.44;;;15.66;60.33
31121;BME280;17770;45.966;13.632;2022-11-20T09:11:03;100079.72;;;15.64;60.34
31121;BME280;17770;45.966;13.632;2022-11-20T09:13:30;100089.19;;;15.65;60.21
31121;BME280;17770;45.966;13.632;2022-11-20T09:15:56;100089.19;;;15.65;60.23
31121;BME280;17770;45.966;13.632;2022-11-20T09:18:23;100090.97;;;15.65;59.84
31121;BME280;17770;45.966;13.632;2022-11-20T09:20:49;100084.91;;;15.64;59.98
31121;BME280;17770;45.966;13.632;2022-11-20T09:23:15;100096.97;;;15.65;59.79
31121;BME280;17770;45.966;13.632;2022-11-20T09:25:41;100097.84;;;15.66;59.79
31121;BME280;17770;45.966;13.632;2022-11-20T09:28:07;100095.16;;;15.68;59.92
31121;BME280;17770;45.966;13.632;2022-11-20T09:30:33;100102.09;;;15.67;60.38
31121;BME280;17770;45.966;13.632;2022-11-20T09:32:59;100096.91;;;15.67;60.00
31121;BME280;17770;45.966;13.632;2022-11-20T09:35:25;100093.47;;;15.67;59.64
31121;BME280;17770;45.966;13.632;2022-11-20T09:37:51;100104.69;;;15.67;60.07
31121;BME280;17770;45.966;13.632;2022-11-20T09:40:19;100096.09;;;15.67;60.30
31121;BME280;17770;45.966;13.632;2022-11-20T09:42:59;100095.16;;;15.68;59.75
31121;BME280;17770;45.966;13.632;2022-11-20T09:45:37;100090.03;;;15.66;59.93
31121;BME280;17770;45.966;13.632;2022-11-20T09:55:47;100094.38;;;15.65;59.82
31121;BME280;17770;45.966;13.632;2022-11-20T09:58:15;100101.38;;;15.65;60.37
31121;BME280;17770;45.966;13.632;2022-11-20T10:00:43;100092.63;;;15.66;60.11
31121;BME280;17770;45.966;13.632;2022-11-20T10:08:21;100093.56;;;15.65;59.96
31121;BME280;17770;45.966;13.632;2022-11-20T10:23:50;100083.16;;;15.65;59.63
31121;BME280;17770;45.966;13.632;2022-11-20T10:27:26;100085.78;;;15.65;59.73
31121;BME280;17770;45.966;13.632;2022-11-20T10:29:16;100079.63;;;15.66;59.62
31121;BME280;17770;45.966;13.632;2022-11-20T10:36:55;100090.88;;;15.67;59.82
31121;BME280;17770;45.966;13.632;2022-11-20T10:39:33;100087.34;;;15.68;60.02
31121;BME280;17770;45.966;13.632;2022-11-20T10:42:00;100080.47;;;15.67;59.87
31121;BME280;17770;45.966;13.632;2022-11-20T10:44:27;100079.56;;;15.68;59.62
31121;BME280;17770;45.966;13.632;2022-11-20T10:47:15;100075.28;;;15.67;60.16
31121;BME280;17770;45.966;13.632;2022-11-20T10:49:42;100076.94;;;15.68;59.58
31121;BME280;17770;45.966;13.632;2022-11-20T10:54:47;100082.16;;;15.68;59.54
31121;BME280;17770;45.966;13.632;2022-11-20T11:02:20;100083.81;;;15.68;59.99
31121;BME280;17770;45.966;13.632;2022-11-20T11:04:47;100091.63;;;15.68;59.96
31121;BME280;17770;45.966;13.632;2022-11-20T11:09:44;100093.31;;;15.70;59.87
31121;BME280;17770;45.966;13.632;2022-11-20T11:12:12;100094.13;;;15.70;60.06
31121;BME280;17770;45.966;13.632;2022-11-20T11:14:48;100097.56;;;15.71;60.07
31121;BME280;17770;45.966;13.632;2022-11-20T11:17:24;100100.16;;;15.71;59.77
31121;BME280;17770;45.966;13.632;2022-11-20T11:22:44;100098.41;;;15.71;59.72
31121;BME280;17770;45.966;13.632;2022-11-20T11:25:21;100088.88;;;15.72;59.88
31121;BME280;17770;45.966;13.632;2022-11-20T11:27:48;100094.06;;;15.72;59.57
31121;BME280;17770;45.966;13.632;2022-11-20T11:30:15;100086.28;;;15.72;59.64
31121;BME280;17770;45.966;13.632;2022-11-20T11:32:42;100087.94;;;15.73;59.94
31121;BME280;17770;45.966;13.632;2022-11-20T11:35:24;100085.34;;;15.73;60.11
31121;BME280;17770;45.966;13.632;2022-11-20T11:37:51;100080.13;;;15.73;59.64
31121;BME280;17770;45.966;13.632;2022-11-20T11:40:20;100092.13;;;15.75;59.50
31121;BME280;17770;45.966;13.632;2022-11-20T11:42:50;100081.81;;;15.74;59.73
31121;BME280;17770;45.966;13.632;2022-11-20T11:45:16;100079.13;;;15.75;59.57
31121;BME280;17770;45.966;13.632;2022-11-20T11:47:46;100079.13;;;15.75;59.58
31121;BME280;17770;45.966;13.632;2022-11-20T11:52:44;100071.31;;;15.75;60.10
31121;BME280;17770;45.966;13.632;2022-11-20T11:55:14;100075.59;;;15.76;59.82
31121;BME280;17770;45.966;13.632;2022-11-20T12:00:17;100071.25;;;15.77;60.16
31121;BME280;17770;45.966;13.632;2022-11-20T12:10:02;100084.25;;;15.77;59.85
31121;BME280;17770;45.966;13.632;2022-11-20T12:12:38;100080.81;;;15.76;60.24
31121;BME280;17770;45.966;13.632;2022-11-20T12:15:09;100078.22;;;15.76;59.93
31121;BME280;17770;45.966;13.632;2022-11-20T12:17:36;100085.06;;;15.77;59.57
31121;BME280;17770;45.966;13.632;2022-11-20T12:20:02;100090.28;;;15.77;60.08
31121;BME280;17770;45.966;13.632;2022-11-20T12:22:38;100081.66;;;15.77;60.12
31121;BME280;17770;45.966;13.632;2022-11-20T12:25:07;100085.06;;;15.77;60.12
31121;BME280;17770;45.966;13.632;2022-11-20T12:30:08;100085.94;;;15.78;60.00
31121;BME280;17770;45.966;13.632;2022-11-20T12:36:04;100083.22;;;15.79;60.20
31121;BME280;17770;45.966;13.632;2022-11-20T12:40:50;100084.09;;;15.80;60.32
31121;BME280;17770;45.966;13.632;2022-11-20T12:43:25;100085.75;;;15.81;60.15
31121;BME280;17770;45.966;13.632;2022-11-20T13:01:45;100074.31;;;15.99;60.94
31121;BME280;17770;45.966;13.632;2022-11-20T13:04:23;100070.72;;;16.01;60.74
31121;BME280;17770;45.966;13.632;2022-11-20T13:06:54;100071.44;;;16.03;61.31
31121;BME280;17770;45.966;13.632;2022-11-20T13:09:20;100061.81;;;16.05;61.15
31121;BME280;17770;45.966;13.632;2022-11-20T13:14:50;100068.72;;;16.06;61.11
31121;BME280;17770;45.966;13.632;2022-11-20T13:19:38;100058.94;;;16.10;61.63
31121;BME280;17770;45.966;13.632;2022-11-20T13:22:04;100059.69;;;16.12;61.46
31121;BME280;17770;45.966;13.632;2022-11-20T13:24:30;100056.19;;;16.13;61.37
31121;BME280;17770;45.966;13.632;2022-11-20T13:29:37;100045.59;;;16.16;61.56
31121;BME280;17770;45.966;13.632;2022-11-20T13:32:17;100041.16;;;16.18;60.96
31121;BME280;17770;45.966;13.632;2022-11-20T13:34:53;100040.22;;;16.19;61.51
31121;BME280;17770;45.966;13.632;2022-11-20T13:37:32;100038.47;;;16.19;61.59
31121;BME280;17770;45.966;13.632;2022-11-20T13:40:05;100038.47;;;16.19;61.67
31121;BME280;17770;45.966;13.632;2022-11-20T13:42:43;100032.22;;;16.22;61.54
31121;BME280;17770;45.966;13.632;2022-11-20T13:45:26;100033.06;;;16.22;61.57
31121;BME280;17770;45.966;13.632;2022-11-20T13:47:52;100022.56;;;16.24;61.18
31121;BME280;17770;45.966;13.632;2022-11-20T13:50:18;100025.19;;;16.24;61.39
31121;BME280;17770;45.966;13.632;2022-11-20T13:55:26;100020.81;;;16.24;60.97
31121;BME280;17770;45.966;13.632;2022-11-20T14:00:47;100020.06;;;16.22;61.28
31121;BME280;17770;45.966;13.632;2022-11-20T14:05:49;100025.34;;;16.21;60.82
31121;BME280;17770;45.966;13.632;2022-11-20T14:08:23;100031.47;;;16.20;60.90
31121;BME280;17770;45.966;13.632;2022-11-20T14:10:50;100023.75;;;16.18;61.07
31121;BME280;17770;45.966;13.632;2022-11-20T14:13:19;100034.16;;;16.18;61.01
31121;BME280;17770;45.966;13.632;2022-11-20T14:15:45;100030.75;;;16.18;60.80
31121;BME280;17770;45.966;13.632;2022-11-20T14:18:20;100028.16;;;16.18;60.70
31121;BME280;17770;45.966;13.632;2022-11-20T14:20:47;100023.84;;;16.17;61.18
31121;BME280;17770;45.966;13.632;2022-11-20T14:23:22;100019.50;;;16.17;61.17
31121;BME280;17770;45.966;13.632;2022-11-20T14:25:48;100023.09;;;16.15;60.50
31121;BME280;17770;45.966;13.632;2022-11-20T14:28:24;100025.63;;;16.16;61.09
31121;BME280;17770;45.966;13.632;2022-11-20T14:30:50;100029.13;;;16.15;60.78